createdAt,value
2022-08-17T00:01:22.588Z,97439.44
2022-08-17T00:05:30.305Z,97440.06
2022-08-17T00:09:33.983Z,97442.88
2022-08-17T00:13:44.195Z,97438.75
2022-08-17T00:17:50.429Z,97443.09
2022-08-17T00:22:31.087Z,97446.34
2022-08-17T00:26:43.686Z,97431.75
2022-08-17T00:30:50.914Z,97436.94
2022-08-17T00:34:54.848Z,97425.41
2022-08-17T00:38:56.898Z,97420.69
2022-08-17T00:43:09.797Z,97427.19
2022-08-17T00:47:13.202Z,97430.78
2022-08-17T00:51:28.502Z,97429.09
2022-08-17T00:55:31.396Z,97441.00
2022-08-17T00:59:38.855Z,97434.59
2022-08-17T01:03:41.633Z,97430.31
2022-08-17T01:07:44.682Z,97427.91
2022-08-17T01:11:52.163Z,97427.06
2022-08-17T01:16:01.981Z,97431.50
2022-08-17T01:20:04.734Z,97430.78
2022-08-17T01:24:07.605Z,97436.06
2022-08-17T01:28:10.125Z,97439.81
2022-08-17T01:32:15.199Z,97442.59
2022-08-17T01:36:17.301Z,97436.09
2022-08-17T01:40:33.639Z,97442.50
2022-08-17T01:44:36.017Z,97442.84
2022-08-17T01:48:41.258Z,97433.22
2022-08-17T01:52:45.393Z,97428.38
2022-08-17T01:56:50.181Z,97423.31
2022-08-17T02:01:00.425Z,97425.97
2022-08-17T02:05:04.613Z,97430.06
2022-08-17T02:09:07.568Z,97424.56
2022-08-17T02:13:19.546Z,97419.56
2022-08-17T02:17:21.594Z,97417.13
2022-08-17T02:21:23.646Z,97413.88
2022-08-17T02:25:26.614Z,97405.81
2022-08-17T02:29:28.647Z,97416.97
2022-08-17T02:33:42.110Z,97414.91
2022-08-17T02:37:45.629Z,97416.34
2022-08-17T02:42:01.659Z,97419.25
2022-08-17T02:46:03.772Z,97406.00
2022-08-17T02:50:07.649Z,97420.19
2022-08-17T02:54:40.129Z,97417.06
2022-08-17T02:58:35.858Z,97425.69
2022-08-17T03:02:43.934Z,97412.66
2022-08-17T03:06:45.986Z,97413.63
2022-08-17T03:10:48.014Z,97414.22
2022-08-17T03:14:50.048Z,97420.47
2022-08-17T03:18:52.112Z,97420.38
2022-08-17T03:22:55.967Z,97416.53
2022-08-17T03:27:04.908Z,97417.16
2022-08-17T03:31:07.565Z,97423.78
2022-08-17T03:35:12.074Z,97420.06
2022-08-17T03:39:14.963Z,97428.34
2022-08-17T03:43:18.683Z,97422.31
2022-08-17T03:47:40.197Z,97422.06
2022-08-17T03:52:02.159Z,97423.56
2022-08-17T03:56:23.337Z,97421.19
2022-08-17T04:00:25.355Z,97416.66
2022-08-17T04:04:28.058Z,97417.22
2022-08-17T04:08:30.450Z,97416.53
2022-08-17T04:12:44.640Z,97418.47
2022-08-17T04:16:46.708Z,97420.66
2022-08-17T04:20:49.182Z,97412.78
2022-08-17T04:24:51.214Z,97406.63
2022-08-17T04:28:53.299Z,97411.56
2022-08-17T04:33:07.384Z,97411.22
2022-08-17T04:37:09.521Z,97415.75
2022-08-17T04:41:31.519Z,97414.06
2022-08-17T04:45:33.703Z,97408.88
2022-08-17T04:49:35.737Z,97415.63
2022-08-17T04:53:42.171Z,97420.44
2022-08-17T04:57:45.236Z,97421.34
2022-08-17T05:01:49.504Z,97419.78
2022-08-17T05:05:51.602Z,97426.09
2022-08-17T05:09:53.678Z,97423.13
2022-08-17T05:13:57.463Z,97434.06
2022-08-17T05:17:59.574Z,97440.31
2022-08-17T05:22:05.602Z,97448.63
2022-08-17T05:26:08.019Z,97449.66
2022-08-17T05:30:15.801Z,97441.88
2022-08-17T05:34:17.814Z,97450.13
2022-08-17T05:38:22.363Z,97458.41
2022-08-17T05:42:24.372Z,97445.69
2022-08-17T05:46:31.192Z,97428.84
2022-08-17T05:51:00.579Z,97430.38
2022-08-17T05:55:15.183Z,97425.47
2022-08-17T05:59:35.080Z,97427.94
2022-08-17T06:03:44.292Z,97415.28
2022-08-17T06:07:46.455Z,97426.84
2022-08-17T06:11:58.823Z,97426.25
2022-08-17T06:16:33.153Z,97433.59
2022-08-17T06:20:48.990Z,97442.50
2022-08-17T06:25:01.045Z,97442.56
2022-08-17T06:29:18.572Z,97442.41
2022-08-17T06:33:25.722Z,97425.38
2022-08-17T06:37:44.937Z,97426.28
2022-08-17T06:42:03.290Z,97424.69
2022-08-17T06:46:12.909Z,97422.09
2022-08-17T06:50:24.070Z,97428.13
2022-08-17T06:54:45.643Z,97428.53
2022-08-17T06:58:48.307Z,97433.94
2022-08-17T07:03:10.581Z,97438.16
2022-08-17T07:07:32.077Z,97432.69
2022-08-17T07:12:02.357Z,97441.66
2022-08-17T07:16:15.740Z,97439.97
2022-08-17T07:20:22.376Z,97445.44
2022-08-17T07:24:30.744Z,97442.63
2022-08-17T07:28:35.286Z,97446.88
2022-08-17T07:32:50.929Z,97447.84
2022-08-17T07:37:05.133Z,97447.00
2022-08-17T07:41:10.642Z,97439.81
2022-08-17T07:45:34.629Z,97428.25
2022-08-17T07:49:40.319Z,97448.22
2022-08-17T07:53:42.452Z,97446.19
2022-08-17T07:57:56.012Z,97447.22
2022-08-17T08:01:58.279Z,97453.22
2022-08-17T08:06:02.935Z,97442.00
2022-08-17T08:10:04.996Z,97463.97
2022-08-17T08:14:33.947Z,97467.31
2022-08-17T08:18:54.451Z,97470.34
2022-08-17T08:23:25.427Z,97480.75
2022-08-17T08:27:27.626Z,97478.38
2022-08-17T08:31:42.179Z,97492.06
2022-08-17T08:36:04.196Z,97498.38
2022-08-17T08:40:23.362Z,97501.13
2022-08-17T08:45:01.121Z,97505.41
2022-08-17T08:49:12.683Z,97489.28
2022-08-17T08:53:49.478Z,97492.44
2022-08-17T08:58:04.826Z,97500.09
2022-08-17T09:02:12.717Z,97499.06
2022-08-17T09:06:32.187Z,97505.88
2022-08-17T09:11:10.284Z,97512.38
2022-08-17T09:15:20.378Z,97518.47
2022-08-17T09:19:35.211Z,97522.50
2022-08-17T09:23:44.871Z,97528.69
2022-08-17T09:28:01.053Z,97525.28
2022-08-17T09:32:14.898Z,97519.88
2022-08-17T09:36:28.085Z,97513.63
2022-08-17T09:40:39.531Z,97490.16
2022-08-17T09:44:51.951Z,97479.78
2022-08-17T09:48:57.310Z,97479.75
2022-08-17T09:52:59.412Z,97496.91
2022-08-17T09:57:28.495Z,97500.09
2022-08-17T10:01:39.917Z,97495.22
2022-08-17T10:06:00.951Z,97506.25
2022-08-17T10:10:14.766Z,97515.69
2022-08-17T10:14:43.760Z,97517.66
2022-08-17T10:19:05.036Z,97515.03
2022-08-17T10:23:30.192Z,97521.34
2022-08-17T10:27:42.209Z,97523.28
2022-08-17T10:31:52.978Z,97520.63
2022-08-17T10:36:08.708Z,97513.56
2022-08-17T10:40:24.565Z,97513.56
2022-08-17T10:44:48.466Z,97535.66
2022-08-17T10:49:12.394Z,97537.31
2022-08-17T10:53:32.828Z,97550.19
2022-08-17T10:57:38.647Z,97553.38
2022-08-17T11:01:43.265Z,97560.78
2022-08-17T11:05:59.961Z,97554.72
2022-08-17T11:10:39.326Z,97535.16
2022-08-17T11:15:35.858Z,97537.56
2022-08-17T11:19:55.968Z,97551.47
2022-08-17T11:24:27.265Z,97541.94
2022-08-17T11:28:46.034Z,97557.50
2022-08-17T11:32:54.850Z,97558.00
2022-08-17T11:37:16.110Z,97562.53
2022-08-17T11:41:35.395Z,97563.91
2022-08-17T11:45:37.478Z,97566.06
2022-08-17T11:49:58.058Z,97556.50
2022-08-17T11:54:31.061Z,97551.06
2022-08-17T11:58:30.358Z,97549.06
2022-08-17T12:02:35.876Z,97550.94
2022-08-17T12:06:50.589Z,97562.50
2022-08-17T12:11:10.979Z,97554.13
2022-08-17T12:15:18.668Z,97560.97
2022-08-17T12:19:21.682Z,97541.44
2022-08-17T12:23:50.221Z,97548.34
2022-08-17T12:28:04.954Z,97552.59
2022-08-17T12:32:17.395Z,97553.13
2022-08-17T12:36:25.026Z,97546.72
2022-08-17T12:40:32.710Z,97541.81
2022-08-17T12:44:42.588Z,97540.44
2022-08-17T12:48:58.869Z,97531.88
2022-08-17T12:53:02.794Z,97531.38
2022-08-17T12:57:11.885Z,97518.81
2022-08-17T13:01:15.872Z,97507.94
2022-08-17T13:05:37.651Z,97518.19
2022-08-17T13:09:40.412Z,97504.72
2022-08-17T13:13:46.947Z,97506.75
2022-08-17T13:18:05.833Z,97496.56
2022-08-17T13:22:12.595Z,97493.84
2022-08-17T13:26:16.167Z,97484.16
2022-08-17T13:30:23.892Z,97496.88
2022-08-17T13:34:26.802Z,97494.38
2022-08-17T13:38:45.666Z,97500.34
2022-08-17T13:42:53.380Z,97491.50
2022-08-17T13:46:57.468Z,97470.50
2022-08-17T13:51:02.113Z,97475.63
2022-08-17T13:55:19.532Z,97482.03
2022-08-17T13:59:36.339Z,97479.25
2022-08-17T14:03:51.683Z,97469.50
2022-08-17T14:08:00.548Z,97466.97
2022-08-17T14:12:05.874Z,97468.03
2022-08-17T14:16:07.947Z,97466.56
2022-08-17T14:20:12.243Z,97455.91
2022-08-17T14:24:38.982Z,97448.19
2022-08-17T14:28:56.511Z,97446.69
2022-08-17T14:32:59.314Z,97440.47
2022-08-17T14:37:01.742Z,97436.34
2022-08-17T14:41:04.877Z,97440.97
2022-08-17T14:45:27.382Z,97449.91
2022-08-17T14:49:32.524Z,97436.88
2022-08-17T14:53:34.642Z,97423.88
2022-08-17T14:57:36.747Z,97417.19
2022-08-17T15:01:38.828Z,97414.00
2022-08-17T15:05:40.956Z,97408.19
2022-08-17T15:09:43.310Z,97426.31
2022-08-17T15:13:52.469Z,97426.31
2022-08-17T15:17:55.833Z,97433.53
2022-08-17T15:21:58.080Z,97425.94
2022-08-17T15:26:00.223Z,97421.97
2022-08-17T15:30:08.698Z,97429.50
2022-08-17T15:34:10.757Z,97425.34
2022-08-17T15:38:13.375Z,97428.13
2022-08-17T15:42:16.131Z,97422.25
2022-08-17T15:46:21.279Z,97404.53
2022-08-17T15:50:23.388Z,97411.78
2022-08-17T15:54:25.421Z,97414.88
2022-08-17T15:58:35.272Z,97408.97
2022-08-17T16:03:16.068Z,97416.75
2022-08-17T16:07:00.326Z,97400.59
2022-08-17T16:11:03.586Z,97396.63
2022-08-17T16:15:07.456Z,97401.34
2022-08-17T16:19:09.569Z,97410.47
2022-08-17T16:23:15.046Z,97410.09
2022-08-17T16:27:19.325Z,97414.81
2022-08-17T16:31:21.561Z,97403.03
2022-08-17T16:35:26.387Z,97396.22
2022-08-17T16:39:30.724Z,97388.13
2022-08-17T16:43:34.462Z,97391.28
2022-08-17T16:47:36.760Z,97402.91
2022-08-17T16:51:39.100Z,97400.59
2022-08-17T16:55:42.537Z,97402.91
2022-08-17T16:59:48.105Z,97405.03
2022-08-17T17:03:58.039Z,97406.06
2022-08-17T17:08:03.517Z,97417.66
2022-08-17T17:12:12.879Z,97414.78
2022-08-17T17:16:48.981Z,97409.31
2022-08-17T17:20:58.458Z,97420.88
2022-08-17T17:25:28.330Z,97416.22
2022-08-17T17:29:58.042Z,97413.09
2022-08-17T17:34:04.511Z,97407.41
2022-08-17T17:38:22.047Z,97410.22
2022-08-17T17:42:31.390Z,97404.28
2022-08-17T17:46:40.163Z,97401.50
2022-08-17T17:51:01.637Z,97399.94
2022-08-17T17:55:17.305Z,97407.63
2022-08-17T17:59:28.388Z,97394.66
2022-08-17T18:03:39.011Z,97399.78
2022-08-17T18:07:54.225Z,97401.09
2022-08-17T18:12:27.169Z,97402.75
2022-08-17T18:16:32.648Z,97398.16
2022-08-17T18:20:46.590Z,97405.16
2022-08-17T18:24:58.801Z,97410.31
2022-08-17T18:29:11.368Z,97411.25
2022-08-17T18:33:24.238Z,97414.06
2022-08-17T18:37:51.369Z,97429.75
2022-08-17T18:41:59.377Z,97416.84
2022-08-17T18:46:29.036Z,97415.38
2022-08-17T18:50:43.801Z,97414.59
2022-08-17T18:55:14.200Z,97421.75
2022-08-17T18:59:41.309Z,97423.31
2022-08-17T19:03:44.108Z,97437.22
2022-08-17T19:07:47.421Z,97436.41
2022-08-17T19:11:49.791Z,97442.81
2022-08-17T19:16:15.117Z,97460.28
2022-08-17T19:20:24.002Z,97466.78
2022-08-17T19:24:29.943Z,97471.28
2022-08-17T19:28:54.561Z,97475.94
2022-08-17T19:32:58.448Z,97481.31
2022-08-17T19:37:03.696Z,97478.97
2022-08-17T19:41:16.689Z,97472.63
2022-08-17T19:45:45.112Z,97480.94
2022-08-17T19:50:08.484Z,97486.38
2022-08-17T19:54:26.436Z,97486.97
2022-08-17T19:58:49.924Z,97491.22
2022-08-17T20:03:06.216Z,97492.03
2022-08-17T20:07:25.770Z,97483.81
2022-08-17T20:11:31.201Z,97489.91
2022-08-17T20:15:37.696Z,97498.22
2022-08-17T20:19:53.212Z,97496.72
2022-08-17T20:24:06.016Z,97507.91
2022-08-17T20:28:30.587Z,97502.78
2022-08-17T20:32:51.897Z,97505.81
2022-08-17T20:37:09.063Z,97507.28
2022-08-17T20:41:17.387Z,97507.59
2022-08-17T20:45:22.245Z,97504.06
2022-08-17T20:49:33.894Z,97509.97
2022-08-17T20:53:48.169Z,97510.25
2022-08-17T20:57:50.451Z,97507.94
2022-08-17T21:02:18.743Z,97503.22
2022-08-17T21:06:23.145Z,97506.25
2022-08-17T21:10:25.120Z,97517.03
2022-08-17T21:15:07.904Z,97514.31
2022-08-17T21:19:44.401Z,97519.47
2022-08-17T21:23:57.846Z,97529.13
2022-08-17T21:28:08.702Z,97552.03
2022-08-17T21:32:24.266Z,97551.66
2022-08-17T21:36:27.215Z,97540.47
2022-08-17T21:40:32.312Z,97546.97
2022-08-17T21:44:37.782Z,97549.31
2022-08-17T21:48:48.117Z,97551.56
2022-08-17T21:52:56.453Z,97564.34
2022-08-17T21:57:01.898Z,97573.31
2022-08-17T22:01:21.147Z,97562.66
2022-08-17T22:05:36.460Z,97559.16
2022-08-17T22:09:47.608Z,97555.34
2022-08-17T22:13:49.677Z,97574.28
2022-08-17T22:17:52.142Z,97574.69
2022-08-17T22:22:03.893Z,97573.28
2022-08-17T22:26:09.551Z,97576.91
2022-08-17T22:30:35.628Z,97566.00
2022-08-17T22:34:38.957Z,97558.13
2022-08-17T22:38:43.546Z,97555.69
2022-08-17T22:42:47.544Z,97559.44
2022-08-17T22:47:02.062Z,97578.66
2022-08-17T22:51:19.367Z,97581.13
2022-08-17T22:55:40.429Z,97598.53
2022-08-17T22:59:47.793Z,97594.03
2022-08-17T23:03:59.282Z,97602.03
2022-08-17T23:08:01.603Z,97592.22
2022-08-17T23:12:08.542Z,97589.84
2022-08-17T23:16:10.557Z,97586.22
2022-08-17T23:20:15.025Z,97589.03
2022-08-17T23:24:23.780Z,97592.13
2022-08-17T23:28:25.847Z,97585.81
2022-08-17T23:32:27.941Z,97589.56
2022-08-17T23:36:31.470Z,97600.78
2022-08-17T23:40:33.564Z,97599.13
2022-08-17T23:44:37.296Z,97593.09
2022-08-17T23:48:41.011Z,97588.19
2022-08-17T23:52:43.596Z,97589.31
2022-08-17T23:56:46.752Z,97603.88
